createdAt,value
2023-02-16T00:00:51.328Z,11.30
2023-02-16T00:01:51.323Z,10.90
2023-02-16T00:02:51.330Z,11.30
2023-02-16T00:03:51.411Z,10.90
2023-02-16T00:04:51.301Z,11.10
2023-02-16T00:05:51.296Z,10.90
2023-02-16T00:06:51.284Z,10.90
2023-02-16T00:07:51.287Z,11.30
2023-02-16T00:08:51.271Z,11.30
2023-02-16T00:09:51.273Z,11.20
2023-02-16T00:10:51.269Z,11.30
2023-02-16T00:11:51.267Z,11.20
2023-02-16T00:12:51.248Z,11.70
2023-02-16T00:13:51.251Z,11.30
2023-02-16T00:14:51.239Z,11.40
2023-02-16T00:15:51.315Z,11.30
2023-02-16T00:16:51.240Z,11.50
2023-02-16T00:17:51.233Z,11.60
2023-02-16T00:18:51.265Z,11.50
2023-02-16T00:19:51.219Z,11.30
2023-02-16T00:20:51.213Z,11.30
2023-02-16T00:21:51.221Z,12.20
2023-02-16T00:22:51.210Z,11.60
2023-02-16T00:23:51.222Z,11.80
2023-02-16T00:24:51.228Z,11.80
2023-02-16T00:25:51.207Z,11.40
2023-02-16T00:26:51.235Z,11.20
2023-02-16T00:27:51.182Z,11.20
2023-02-16T00:28:51.215Z,10.60
2023-02-16T00:29:51.187Z,11.20
2023-02-16T00:30:51.341Z,10.90
2023-02-16T00:31:51.353Z,11.70
2023-02-16T00:32:51.156Z,11.20
2023-02-16T00:33:51.186Z,11.00
2023-02-16T00:34:51.175Z,11.20
2023-02-16T00:35:51.131Z,11.30
2023-02-16T00:36:51.152Z,11.20
2023-02-16T00:37:51.167Z,11.60
2023-02-16T00:38:51.169Z,11.40
2023-02-16T00:39:51.110Z,11.20
2023-02-16T00:40:51.125Z,11.20
2023-02-16T00:41:51.123Z,11.30
2023-02-16T00:42:51.129Z,11.00
2023-02-16T00:43:51.093Z,11.40
2023-02-16T00:44:51.112Z,10.70
2023-02-16T00:45:51.094Z,11.30
2023-02-16T00:46:51.076Z,10.90
2023-02-16T00:47:51.071Z,10.90
2023-02-16T00:48:51.065Z,10.70
2023-02-16T00:49:51.055Z,10.40
2023-02-16T00:50:51.130Z,10.30
2023-02-16T00:51:51.044Z,10.60
2023-02-16T00:52:51.041Z,10.10
2023-02-16T00:53:51.029Z,10.30
2023-02-16T00:54:51.037Z,10.90
2023-02-16T00:55:51.018Z,11.20
2023-02-16T00:56:51.025Z,10.70
2023-02-16T00:57:51.013Z,10.80
2023-02-16T00:58:51.010Z,10.60
2023-02-16T00:59:51.001Z,10.50
2023-02-16T01:00:50.997Z,11.30
2023-02-16T01:01:51.054Z,11.10
2023-02-16T01:02:50.989Z,11.00
2023-02-16T01:03:50.976Z,10.50
2023-02-16T01:04:51.088Z,10.50
2023-02-16T01:05:50.962Z,10.70
2023-02-16T01:06:50.999Z,10.80
2023-02-16T01:07:50.952Z,10.30
2023-02-16T01:08:50.947Z,10.70
2023-02-16T01:09:50.947Z,10.70
2023-02-16T01:10:50.935Z,11.10
2023-02-16T01:11:50.931Z,10.70
2023-02-16T01:12:50.925Z,11.10
2023-02-16T01:13:50.921Z,10.70
2023-02-16T01:14:50.910Z,10.90
2023-02-16T01:15:50.978Z,11.00
2023-02-16T01:16:50.902Z,10.60
2023-02-16T01:17:50.896Z,10.30
2023-02-16T01:18:50.895Z,10.60
2023-02-16T01:19:50.884Z,10.20
2023-02-16T01:20:50.878Z,10.80
2023-02-16T01:21:50.875Z,10.10
2023-02-16T01:22:50.888Z,10.20
2023-02-16T01:23:50.864Z,10.40
2023-02-16T01:24:50.887Z,10.60
2023-02-16T01:25:50.843Z,10.60
2023-02-16T01:26:50.847Z,10.20
2023-02-16T01:27:50.835Z,10.20
2023-02-16T01:28:50.849Z,10.50
2023-02-16T01:29:50.830Z,10.40
2023-02-16T01:30:50.924Z,10.60
2023-02-16T01:31:50.963Z,10.20
2023-02-16T01:32:50.836Z,10.50
2023-02-16T01:33:50.809Z,10.60
2023-02-16T01:34:50.838Z,10.50
2023-02-16T01:35:50.808Z,10.80
2023-02-16T01:36:50.817Z,10.40
2023-02-16T01:37:50.790Z,10.10
2023-02-16T01:38:50.832Z,10.70
2023-02-16T01:39:50.792Z,10.60
2023-02-16T01:40:50.768Z,10.90
2023-02-16T01:41:50.783Z,10.60
2023-02-16T01:42:50.764Z,10.80
2023-02-16T01:43:50.764Z,10.90
2023-02-16T01:44:50.756Z,10.60
2023-02-16T01:45:50.744Z,10.80
2023-02-16T01:46:50.826Z,10.70
2023-02-16T01:47:50.730Z,11.10
2023-02-16T01:48:50.760Z,11.10
2023-02-16T01:49:50.722Z,10.70
2023-02-16T01:50:50.716Z,10.30
2023-02-16T01:51:50.704Z,10.40
2023-02-16T01:52:50.701Z,10.60
2023-02-16T01:53:50.691Z,10.40
2023-02-16T01:54:50.841Z,10.60
2023-02-16T01:55:50.679Z,10.40
2023-02-16T01:56:50.678Z,10.40
2023-02-16T01:57:50.666Z,10.50
2023-02-16T01:58:50.666Z,10.40
2023-02-16T01:59:50.657Z,10.00
2023-02-16T02:00:50.665Z,10.50
2023-02-16T02:01:50.697Z,11.20
2023-02-16T02:02:50.806Z,10.90
2023-02-16T02:03:50.635Z,10.60
2023-02-16T02:04:50.633Z,10.90
2023-02-16T02:05:50.631Z,10.70
2023-02-16T02:06:50.622Z,10.70
2023-02-16T02:07:50.622Z,10.90
2023-02-16T02:08:50.608Z,11.00
2023-02-16T02:09:50.600Z,10.60
2023-02-16T02:10:50.616Z,11.00
2023-02-16T02:11:50.596Z,10.50
2023-02-16T02:12:50.605Z,10.90
2023-02-16T02:13:50.578Z,10.40
2023-02-16T02:14:50.577Z,10.40
2023-02-16T02:15:50.621Z,11.10
2023-02-16T02:16:50.566Z,10.80
2023-02-16T02:17:50.571Z,10.80
2023-02-16T02:18:50.550Z,11.10
2023-02-16T02:19:50.543Z,10.60
2023-02-16T02:20:50.552Z,10.60
2023-02-16T02:21:50.541Z,10.50
2023-02-16T02:22:50.536Z,10.30
2023-02-16T02:23:50.518Z,10.40
2023-02-16T02:24:50.527Z,10.30
2023-02-16T02:25:50.510Z,10.20
2023-02-16T02:26:50.611Z,10.50
2023-02-16T02:27:50.506Z,10.20
2023-02-16T02:28:50.496Z,10.60
2023-02-16T02:29:50.479Z,10.00
2023-02-16T02:30:50.508Z,10.00
2023-02-16T02:31:50.649Z,10.80
2023-02-16T02:32:50.474Z,10.70
2023-02-16T02:33:50.460Z,10.60
2023-02-16T02:34:50.457Z,10.50
2023-02-16T02:35:50.454Z,10.70
2023-02-16T02:36:50.452Z,11.50
2023-02-16T02:37:50.447Z,10.70
2023-02-16T02:38:50.441Z,10.20
2023-02-16T02:39:50.433Z,10.30
2023-02-16T02:40:50.428Z,10.10
2023-02-16T02:41:50.421Z,10.40
2023-02-16T02:42:50.435Z,10.60
2023-02-16T02:43:50.414Z,9.80
2023-02-16T02:44:50.463Z,10.10
2023-02-16T02:45:50.395Z,10.50
2023-02-16T02:46:50.454Z,10.50
2023-02-16T02:47:50.384Z,10.30
2023-02-16T02:48:50.392Z,9.90
2023-02-16T02:49:50.370Z,9.90
2023-02-16T02:50:50.374Z,9.80
2023-02-16T02:51:50.369Z,10.10
2023-02-16T02:52:50.362Z,10.30
2023-02-16T02:53:50.359Z,10.30
2023-02-16T02:54:50.347Z,10.80
2023-02-16T02:55:50.353Z,10.40
2023-02-16T02:56:50.342Z,10.90
2023-02-16T02:57:50.333Z,10.80
2023-02-16T02:58:50.344Z,11.00
2023-02-16T02:59:50.322Z,11.00
2023-02-16T03:00:50.345Z,11.00
2023-02-16T03:01:50.353Z,10.90
2023-02-16T03:02:50.309Z,10.90
2023-02-16T03:03:50.297Z,10.80
2023-02-16T03:04:50.296Z,10.60
2023-02-16T03:05:50.295Z,10.50
2023-02-16T03:06:50.278Z,10.80
2023-02-16T03:07:50.274Z,10.70
2023-02-16T03:08:50.285Z,11.10
2023-02-16T03:09:50.259Z,10.80
2023-02-16T03:10:50.256Z,10.90
2023-02-16T03:11:50.252Z,11.50
2023-02-16T03:12:50.252Z,11.20
2023-02-16T03:13:50.253Z,11.00
2023-02-16T03:14:50.257Z,11.00
2023-02-16T03:15:50.226Z,10.80
2023-02-16T03:16:50.237Z,11.10
2023-02-16T03:17:50.211Z,11.00
2023-02-16T03:18:50.225Z,11.00
2023-02-16T03:19:50.204Z,11.00
2023-02-16T03:20:50.201Z,10.90
2023-02-16T03:21:50.200Z,11.20
2023-02-16T03:22:50.191Z,11.30
2023-02-16T03:23:50.185Z,11.10
2023-02-16T03:24:50.181Z,11.30
2023-02-16T03:25:50.175Z,10.80
2023-02-16T03:26:50.164Z,11.70
2023-02-16T03:27:50.157Z,11.50
2023-02-16T03:28:50.153Z,10.80
2023-02-16T03:29:50.143Z,10.50
2023-02-16T03:30:50.299Z,10.50
2023-02-16T03:31:50.201Z,10.40
2023-02-16T03:32:50.128Z,10.80
2023-02-16T03:33:50.122Z,10.70
2023-02-16T03:34:50.111Z,10.70
2023-02-16T03:35:50.113Z,11.00
2023-02-16T03:36:50.107Z,10.80
2023-02-16T03:37:50.094Z,11.10
2023-02-16T03:38:50.092Z,10.80
2023-02-16T03:39:50.096Z,10.80
2023-02-16T03:40:50.091Z,10.80
2023-02-16T03:41:50.084Z,10.80
2023-02-16T03:42:50.095Z,10.20
2023-02-16T03:43:50.066Z,10.70
2023-02-16T03:44:50.055Z,10.80
2023-02-16T03:45:50.125Z,10.60
2023-02-16T03:46:50.070Z,10.80
2023-02-16T03:47:50.046Z,10.70
2023-02-16T03:48:50.037Z,10.90
2023-02-16T03:49:50.026Z,11.00
2023-02-16T03:50:50.043Z,10.90
2023-02-16T03:51:50.015Z,11.00
2023-02-16T03:52:50.022Z,10.80
2023-02-16T03:53:50.029Z,10.70
2023-02-16T03:54:50.017Z,11.40
2023-02-16T03:55:50.022Z,10.50
2023-02-16T03:56:49.995Z,10.50
2023-02-16T03:57:50.006Z,10.70
2023-02-16T03:58:49.991Z,11.10
2023-02-16T03:59:49.973Z,11.20
2023-02-16T04:00:49.973Z,10.80
2023-02-16T04:01:50.028Z,11.00
2023-02-16T04:02:50.004Z,11.00
2023-02-16T04:03:49.982Z,10.80
2023-02-16T04:04:49.950Z,10.70
2023-02-16T04:05:49.936Z,10.80
2023-02-16T04:06:49.933Z,11.30
2023-02-16T04:07:49.930Z,11.30
2023-02-16T04:08:49.927Z,11.20
2023-02-16T04:09:49.922Z,11.30
2023-02-16T04:10:49.922Z,11.40
2023-02-16T04:11:49.904Z,11.50
2023-02-16T04:12:49.904Z,11.30
2023-02-16T04:13:49.893Z,10.60
2023-02-16T04:14:49.890Z,11.30
2023-02-16T04:15:49.896Z,11.10
2023-02-16T04:16:49.990Z,10.80
2023-02-16T04:17:49.872Z,10.60
2023-02-16T04:18:49.895Z,11.00
2023-02-16T04:19:49.865Z,11.40
2023-02-16T04:20:49.860Z,11.70
2023-02-16T04:21:49.856Z,10.80
2023-02-16T04:22:49.846Z,11.00
2023-02-16T04:23:49.834Z,10.80
2023-02-16T04:24:49.840Z,11.40
2023-02-16T04:25:49.826Z,11.20
2023-02-16T04:26:49.828Z,11.40
2023-02-16T04:27:49.815Z,11.20
2023-02-16T04:28:49.813Z,10.40
2023-02-16T04:29:49.798Z,10.50
2023-02-16T04:30:49.872Z,11.10
2023-02-16T04:31:50.037Z,11.20
2023-02-16T04:32:49.784Z,10.50
2023-02-16T04:33:49.779Z,10.50
2023-02-16T04:34:49.798Z,10.80
2023-02-16T04:35:49.771Z,10.90
2023-02-16T04:36:49.761Z,10.30
2023-02-16T04:37:49.754Z,10.90
2023-02-16T04:38:49.747Z,11.40
2023-02-16T04:39:49.746Z,11.00
2023-02-16T04:40:49.743Z,10.50
2023-02-16T04:41:49.746Z,10.50
2023-02-16T04:42:49.726Z,11.00
2023-02-16T04:43:49.722Z,10.30
2023-02-16T04:44:49.711Z,9.30
2023-02-16T04:45:49.787Z,9.20
2023-02-16T04:46:49.697Z,9.70
2023-02-16T04:47:49.702Z,9.20
2023-02-16T04:48:49.688Z,9.50
2023-02-16T04:49:50.407Z,8.90
2023-02-16T04:50:49.697Z,9.00
2023-02-16T04:51:49.668Z,9.10
2023-02-16T04:52:49.667Z,9.60
2023-02-16T04:53:49.673Z,9.20
2023-02-16T04:54:49.656Z,9.20
2023-02-16T04:55:49.650Z,9.20
2023-02-16T04:56:49.689Z,8.90
2023-02-16T04:57:49.634Z,9.00
2023-02-16T04:58:49.626Z,9.00
2023-02-16T04:59:49.632Z,8.80
2023-02-16T05:00:49.618Z,9.00
2023-02-16T05:01:49.677Z,8.90
2023-02-16T05:02:49.611Z,8.80
2023-02-16T05:03:49.605Z,8.90
2023-02-16T05:04:49.729Z,8.80
2023-02-16T05:05:49.591Z,8.70
2023-02-16T05:06:49.605Z,8.80
2023-02-16T05:07:49.583Z,8.90
2023-02-16T05:08:49.602Z,9.30
2023-02-16T05:09:49.566Z,9.20
2023-02-16T05:10:49.555Z,9.00
2023-02-16T05:11:49.576Z,8.40
2023-02-16T05:12:49.552Z,8.00
2023-02-16T05:13:49.538Z,8.40
2023-02-16T05:14:49.532Z,9.30
2023-02-16T05:15:49.546Z,10.20
2023-02-16T05:16:49.551Z,10.00
2023-02-16T05:17:49.522Z,9.60
2023-02-16T05:18:49.523Z,9.40
2023-02-16T05:19:49.513Z,9.90
2023-02-16T05:20:49.511Z,10.10
2023-02-16T05:21:49.504Z,10.00
2023-02-16T05:22:49.518Z,10.20
2023-02-16T05:23:49.483Z,10.10
2023-02-16T05:24:49.479Z,10.10
2023-02-16T05:25:49.478Z,9.70
2023-02-16T05:26:49.468Z,10.00
2023-02-16T05:27:49.469Z,10.60
2023-02-16T05:28:49.467Z,10.60
2023-02-16T05:29:49.452Z,9.90
2023-02-16T05:30:49.521Z,10.30
2023-02-16T05:31:49.529Z,10.50
2023-02-16T05:32:49.431Z,10.60
2023-02-16T05:33:49.427Z,10.40
2023-02-16T05:34:49.418Z,10.40
2023-02-16T05:35:49.419Z,10.80
2023-02-16T05:36:49.411Z,11.00
2023-02-16T05:37:49.406Z,10.30
2023-02-16T05:38:49.421Z,10.10
2023-02-16T05:39:49.398Z,9.70
2023-02-16T05:40:49.391Z,9.80
2023-02-16T05:41:49.386Z,9.80
2023-02-16T05:42:49.399Z,9.60
2023-02-16T05:43:49.414Z,9.40
2023-02-16T05:44:49.390Z,10.10
2023-02-16T05:45:49.397Z,9.40
2023-02-16T05:46:49.384Z,10.10
2023-02-16T05:47:49.363Z,10.10
2023-02-16T05:48:49.348Z,9.80
2023-02-16T05:49:49.364Z,9.60
2023-02-16T05:50:49.340Z,9.60
2023-02-16T05:51:49.335Z,9.60
2023-02-16T05:52:49.331Z,9.70
2023-02-16T05:53:49.349Z,9.80
2023-02-16T05:54:49.474Z,9.80
2023-02-16T05:55:49.334Z,10.50
2023-02-16T05:56:49.362Z,9.30
2023-02-16T05:57:49.324Z,9.50
2023-02-16T05:58:49.321Z,9.40
2023-02-16T05:59:49.287Z,8.50
2023-02-16T06:00:49.316Z,8.90
2023-02-16T06:01:51.837Z,9.00
2023-02-16T06:02:49.381Z,9.40
2023-02-16T06:03:49.343Z,9.80
2023-02-16T06:04:49.252Z,9.20
2023-02-16T06:05:49.280Z,9.30
2023-02-16T06:06:49.247Z,9.00
2023-02-16T06:07:49.264Z,9.40
2023-02-16T06:08:49.238Z,9.40
2023-02-16T06:09:49.235Z,9.20
2023-02-16T06:10:49.285Z,9.20
2023-02-16T06:11:49.240Z,9.50
2023-02-16T06:12:49.228Z,9.20
2023-02-16T06:13:49.228Z,9.20
2023-02-16T06:14:49.221Z,9.40
2023-02-16T06:15:49.278Z,8.80
2023-02-16T06:16:49.188Z,8.90
2023-02-16T06:17:49.177Z,9.00
2023-02-16T06:18:49.167Z,10.30
2023-02-16T06:19:49.174Z,9.40
2023-02-16T06:20:49.163Z,9.80
2023-02-16T06:21:49.196Z,9.40
2023-02-16T06:22:49.143Z,9.60
2023-02-16T06:23:49.143Z,9.20
2023-02-16T06:24:49.136Z,9.30
2023-02-16T06:25:49.129Z,9.90
2023-02-16T06:26:49.139Z,9.70
2023-02-16T06:27:49.117Z,9.70
2023-02-16T06:28:49.108Z,9.60
2023-02-16T06:29:49.111Z,9.30
2023-02-16T06:30:49.101Z,9.50
2023-02-16T06:31:49.236Z,9.60
2023-02-16T06:32:49.088Z,9.50
2023-02-16T06:33:49.080Z,9.90
2023-02-16T06:34:49.076Z,10.10
2023-02-16T06:35:49.085Z,9.70
2023-02-16T06:36:49.081Z,10.30
2023-02-16T06:37:49.063Z,10.00
2023-02-16T06:38:49.047Z,10.40
2023-02-16T06:39:49.050Z,9.90
2023-02-16T06:40:49.034Z,9.90
2023-02-16T06:41:49.031Z,10.10
2023-02-16T06:42:49.045Z,9.80
2023-02-16T06:43:49.023Z,10.00
2023-02-16T06:44:49.012Z,10.00
2023-02-16T06:45:49.025Z,10.10
2023-02-16T06:46:49.049Z,9.70
2023-02-16T06:47:49.020Z,9.70
2023-02-16T06:48:49.011Z,9.70
2023-02-16T06:49:48.988Z,9.30
2023-02-16T06:50:48.982Z,9.80
2023-02-16T06:51:48.984Z,9.60
2023-02-16T06:52:48.998Z,9.50
2023-02-16T06:53:48.976Z,9.90
2023-02-16T06:54:49.008Z,10.00
2023-02-16T06:55:48.952Z,9.80
2023-02-16T06:56:48.976Z,12.10
2023-02-16T06:57:48.957Z,10.50
2023-02-16T06:58:48.976Z,10.30
2023-02-16T06:59:48.961Z,10.50
2023-02-16T07:00:48.987Z,9.90
2023-02-16T07:01:48.905Z,10.00
2023-02-16T07:02:48.933Z,10.30
2023-02-16T07:03:48.961Z,10.40
2023-02-16T07:04:48.950Z,10.40
2023-02-16T07:05:48.888Z,9.70
2023-02-16T07:06:48.893Z,9.90
2023-02-16T07:07:48.913Z,9.60
2023-02-16T07:08:48.894Z,9.50
2023-02-16T07:09:48.888Z,9.80
2023-02-16T07:11:03.224Z,9.60
2023-02-16T07:11:48.877Z,10.10
2023-02-16T07:12:48.856Z,9.60
2023-02-16T07:13:48.866Z,9.70
2023-02-16T07:14:48.914Z,9.90
2023-02-16T07:15:48.841Z,10.00
2023-02-16T07:16:48.879Z,9.80
2023-02-16T07:17:48.852Z,9.40
2023-02-16T07:18:48.832Z,9.50
2023-02-16T07:19:48.848Z,9.40
2023-02-16T07:20:48.802Z,9.70
2023-02-16T07:21:48.860Z,9.30
2023-02-16T07:22:48.799Z,11.00
2023-02-16T07:23:48.830Z,11.30
2023-02-16T07:24:48.794Z,9.20
2023-02-16T07:25:48.825Z,9.50
2023-02-16T07:26:48.820Z,9.50
2023-02-16T07:27:48.786Z,9.70
2023-02-16T07:28:48.748Z,9.10
2023-02-16T07:29:48.747Z,9.40
2023-02-16T07:30:48.872Z,9.40
2023-02-16T07:31:49.014Z,9.10
2023-02-16T07:32:48.727Z,9.00
2023-02-16T07:33:48.727Z,9.50
2023-02-16T07:34:48.739Z,9.10
2023-02-16T07:35:48.713Z,9.10
2023-02-16T07:36:48.709Z,9.30
2023-02-16T07:37:48.702Z,9.00
2023-02-16T07:38:48.712Z,9.80
2023-02-16T07:39:48.690Z,9.90
2023-02-16T07:40:48.687Z,9.50
2023-02-16T07:41:48.676Z,9.80
2023-02-16T07:42:48.667Z,10.30
2023-02-16T07:43:48.673Z,10.00
2023-02-16T07:44:48.657Z,10.50
2023-02-16T07:45:48.697Z,9.90
2023-02-16T07:46:48.668Z,10.20
2023-02-16T07:47:48.646Z,10.40
2023-02-16T07:48:48.637Z,10.60
2023-02-16T07:49:48.628Z,10.50
2023-02-16T07:50:48.628Z,10.50
2023-02-16T07:51:48.640Z,10.70
2023-02-16T07:52:48.611Z,11.00
2023-02-16T07:53:48.610Z,10.90
2023-02-16T07:54:48.612Z,10.80
2023-02-16T07:55:48.604Z,10.90
2023-02-16T07:56:48.594Z,10.70
2023-02-16T07:57:48.590Z,10.90
2023-02-16T07:58:48.580Z,10.90
2023-02-16T07:59:48.580Z,10.70
2023-02-16T08:00:48.572Z,11.10
2023-02-16T08:01:48.672Z,10.60
2023-02-16T08:02:48.679Z,10.50
2023-02-16T08:03:48.557Z,10.70
2023-02-16T08:04:48.547Z,10.30
2023-02-16T08:05:48.557Z,10.40
2023-02-16T08:06:48.556Z,10.20
2023-02-16T08:07:48.548Z,9.90
2023-02-16T08:08:48.537Z,10.10
2023-02-16T08:09:48.530Z,9.90
2023-02-16T08:10:48.517Z,10.10
2023-02-16T08:11:48.520Z,10.30
2023-02-16T08:12:48.516Z,10.40
2023-02-16T08:13:48.518Z,10.30
2023-02-16T08:14:48.512Z,10.70
2023-02-16T08:15:48.508Z,10.20
2023-02-16T08:16:51.128Z,10.30
2023-02-16T08:17:48.496Z,10.40
2023-02-16T08:18:48.554Z,10.10
2023-02-16T08:19:48.480Z,10.20
2023-02-16T08:21:03.166Z,10.30
2023-02-16T08:21:48.478Z,10.30
2023-02-16T08:22:48.469Z,10.50
2023-02-16T08:23:48.482Z,10.40
2023-02-16T08:24:48.466Z,10.50
2023-02-16T08:25:48.463Z,10.30
2023-02-16T08:26:48.457Z,10.30
2023-02-16T08:27:48.454Z,10.30
2023-02-16T08:28:48.444Z,10.30
2023-02-16T08:29:48.441Z,10.00
2023-02-16T08:30:48.435Z,10.10
2023-02-16T08:31:48.589Z,10.20
2023-02-16T08:32:48.426Z,10.20
2023-02-16T08:33:48.425Z,10.20
2023-02-16T08:34:48.440Z,9.90
2023-02-16T08:35:48.429Z,9.90
2023-02-16T08:36:48.418Z,10.20
2023-02-16T08:37:48.408Z,10.40
2023-02-16T08:38:48.403Z,10.20
2023-02-16T08:39:48.402Z,10.70
2023-02-16T08:40:48.399Z,10.50
2023-02-16T08:41:48.398Z,10.10
2023-02-16T08:42:48.410Z,10.50
2023-02-16T08:43:48.393Z,10.40
2023-02-16T08:44:48.477Z,10.50
2023-02-16T08:45:48.484Z,10.90
2023-02-16T08:46:48.401Z,10.80
2023-02-16T08:47:48.372Z,10.50
2023-02-16T08:48:48.364Z,10.50
2023-02-16T08:49:48.364Z,10.60
2023-02-16T08:50:48.443Z,10.30
2023-02-16T08:51:48.357Z,10.40
2023-02-16T08:52:48.347Z,10.60
2023-02-16T08:53:48.347Z,10.30
2023-02-16T08:54:48.349Z,10.00
2023-02-16T08:55:48.342Z,10.30
2023-02-16T08:56:48.338Z,10.10
2023-02-16T08:57:48.336Z,9.90
2023-02-16T08:58:48.336Z,10.00
2023-02-16T08:59:48.328Z,10.30
2023-02-16T09:00:48.332Z,10.60
2023-02-16T09:01:48.313Z,10.30
2023-02-16T09:02:48.394Z,9.70
2023-02-16T09:03:48.314Z,9.90
2023-02-16T09:04:48.953Z,9.60
2023-02-16T09:05:48.310Z,9.70
2023-02-16T09:06:48.360Z,9.90
2023-02-16T09:07:48.303Z,9.60
2023-02-16T09:08:48.319Z,9.90
2023-02-16T09:09:48.307Z,9.90
2023-02-16T09:10:48.302Z,10.10
2023-02-16T09:11:48.372Z,9.80
2023-02-16T09:12:48.305Z,10.10
2023-02-16T09:13:48.292Z,10.40
2023-02-16T09:14:48.299Z,9.90
2023-02-16T09:15:48.297Z,10.00
2023-02-16T09:16:48.479Z,10.50
2023-02-16T09:17:48.288Z,10.30
2023-02-16T09:18:48.295Z,10.60
2023-02-16T09:19:48.296Z,10.80
2023-02-16T09:20:48.289Z,10.20
2023-02-16T09:21:48.289Z,10.00
2023-02-16T09:22:48.421Z,10.70
2023-02-16T09:23:48.285Z,10.20
2023-02-16T09:24:48.284Z,9.60
2023-02-16T09:25:48.295Z,10.30
2023-02-16T09:26:48.291Z,10.30
2023-02-16T09:27:48.290Z,10.60
2023-02-16T09:28:48.299Z,10.50
2023-02-16T09:29:48.283Z,10.60
2023-02-16T09:30:48.304Z,10.20
2023-02-16T09:31:48.298Z,10.60
2023-02-16T09:32:48.285Z,10.60
2023-02-16T09:33:48.279Z,10.30
2023-02-16T09:34:48.291Z,10.30
2023-02-16T09:35:48.288Z,10.20
2023-02-16T09:36:48.287Z,10.50
2023-02-16T09:37:48.279Z,10.80
2023-02-16T09:38:48.303Z,10.90
2023-02-16T09:39:48.285Z,10.50
2023-02-16T09:40:48.282Z,10.70
2023-02-16T09:41:48.277Z,11.20
2023-02-16T09:42:48.291Z,11.00
2023-02-16T09:43:48.284Z,11.20
2023-02-16T09:44:48.281Z,11.20
2023-02-16T09:45:48.318Z,11.20
2023-02-16T09:46:48.298Z,10.90
2023-02-16T09:47:48.282Z,11.50
2023-02-16T09:48:48.286Z,11.30
2023-02-16T09:49:48.281Z,11.50
2023-02-16T09:50:54.185Z,11.50
2023-02-16T09:51:48.289Z,11.30
2023-02-16T09:52:48.289Z,11.70
2023-02-16T09:53:48.280Z,11.40
2023-02-16T09:54:48.318Z,11.10
2023-02-16T09:55:48.293Z,11.20
2023-02-16T09:56:48.302Z,10.50
2023-02-16T09:57:48.283Z,10.20
2023-02-16T09:58:48.290Z,10.30
2023-02-16T09:59:48.305Z,10.50
2023-02-16T10:00:48.292Z,10.30
2023-02-16T10:01:48.288Z,10.50
2023-02-16T10:02:48.374Z,10.70
2023-02-16T10:03:48.290Z,10.80
2023-02-16T10:04:48.300Z,10.80
2023-02-16T10:05:48.292Z,11.10
2023-02-16T10:06:48.295Z,10.70
2023-02-16T10:07:48.287Z,10.70
2023-02-16T10:08:48.302Z,10.90
2023-02-16T10:09:48.291Z,10.90
2023-02-16T10:10:48.311Z,10.70
2023-02-16T10:11:48.294Z,10.90
2023-02-16T10:12:48.296Z,11.30
2023-02-16T10:13:48.291Z,11.60
2023-02-16T10:14:48.294Z,11.60
2023-02-16T10:15:48.352Z,11.30
2023-02-16T10:16:48.294Z,11.50
2023-02-16T10:17:48.290Z,11.00
2023-02-16T10:18:48.292Z,11.10
2023-02-16T10:19:48.300Z,11.50
2023-02-16T10:20:48.292Z,11.50
2023-02-16T10:21:48.294Z,11.20
2023-02-16T10:22:48.308Z,11.40
2023-02-16T10:23:48.303Z,11.20
2023-02-16T10:24:48.294Z,11.90
2023-02-16T10:25:48.294Z,11.40
2023-02-16T10:26:48.325Z,11.20
2023-02-16T10:27:48.298Z,11.50
2023-02-16T10:28:48.294Z,11.70
2023-02-16T10:29:48.288Z,11.20
2023-02-16T10:30:48.409Z,11.50
2023-02-16T10:31:48.482Z,11.70
2023-02-16T10:32:48.303Z,11.60
2023-02-16T10:33:48.293Z,11.30
2023-02-16T10:34:48.293Z,11.10
2023-02-16T10:35:48.300Z,11.50
2023-02-16T10:36:48.303Z,11.40
2023-02-16T10:37:48.293Z,11.40
2023-02-16T10:38:48.297Z,11.20
2023-02-16T10:39:48.295Z,11.50
2023-02-16T10:40:48.308Z,11.50
2023-02-16T10:41:48.294Z,11.20
2023-02-16T10:42:48.349Z,11.20
2023-02-16T10:43:48.304Z,11.50
2023-02-16T10:44:48.304Z,11.30
2023-02-16T10:45:51.995Z,11.50
2023-02-16T10:46:48.340Z,11.40
2023-02-16T10:47:48.299Z,12.00
2023-02-16T10:48:48.302Z,11.80
2023-02-16T10:49:48.306Z,11.70
2023-02-16T10:50:48.301Z,11.60
2023-02-16T10:51:48.295Z,11.40
2023-02-16T10:52:48.292Z,11.40
2023-02-16T10:53:48.294Z,11.50
2023-02-16T10:54:48.300Z,11.90
2023-02-16T10:55:48.297Z,12.00
2023-02-16T10:56:48.310Z,11.20
2023-02-16T10:57:48.295Z,10.90
2023-02-16T10:58:48.323Z,11.10
2023-02-16T10:59:48.298Z,10.70
2023-02-16T11:00:48.311Z,11.00
2023-02-16T11:01:48.404Z,10.70
2023-02-16T11:02:48.314Z,10.60
2023-02-16T11:03:48.295Z,10.40
2023-02-16T11:04:48.385Z,10.50
2023-02-16T11:05:48.290Z,10.60
2023-02-16T11:06:48.296Z,10.60
2023-02-16T11:07:48.291Z,10.70
2023-02-16T11:08:48.298Z,11.10
2023-02-16T11:09:48.295Z,10.50
2023-02-16T11:10:48.321Z,10.80
2023-02-16T11:11:48.296Z,11.00
2023-02-16T11:12:48.308Z,10.40
2023-02-16T11:13:48.296Z,11.60
2023-02-16T11:14:48.325Z,11.20
2023-02-16T11:15:48.306Z,11.50
2023-02-16T11:16:48.303Z,11.30
2023-02-16T11:17:48.306Z,10.70
2023-02-16T11:18:48.296Z,11.30
2023-02-16T11:19:48.293Z,11.30
2023-02-16T11:20:48.298Z,11.20
2023-02-16T11:21:48.306Z,11.10
2023-02-16T11:22:48.301Z,10.70
2023-02-16T11:23:48.295Z,10.80
2023-02-16T11:24:48.301Z,11.00
2023-02-16T11:25:48.302Z,12.00
2023-02-16T11:26:48.300Z,10.70
2023-02-16T11:27:48.304Z,11.10
2023-02-16T11:28:48.295Z,11.40
2023-02-16T11:29:48.293Z,10.90
2023-02-16T11:30:48.351Z,11.60
2023-02-16T11:31:48.420Z,11.00
2023-02-16T11:32:48.299Z,11.10
2023-02-16T11:33:48.296Z,11.50
2023-02-16T11:34:48.301Z,11.60
2023-02-16T11:35:48.293Z,11.20
2023-02-16T11:36:48.313Z,11.70
2023-02-16T11:37:48.291Z,11.50
2023-02-16T11:38:48.293Z,11.30
2023-02-16T11:39:48.293Z,11.60
2023-02-16T11:40:48.297Z,11.90
2023-02-16T11:41:48.310Z,12.30
2023-02-16T11:42:48.313Z,11.70
2023-02-16T11:43:48.285Z,11.10
2023-02-16T11:44:48.294Z,11.80
2023-02-16T11:45:48.283Z,11.70
2023-02-16T11:46:48.386Z,12.20
2023-02-16T11:47:48.279Z,11.10
2023-02-16T11:48:48.291Z,11.70
2023-02-16T11:49:48.281Z,11.60
2023-02-16T11:50:48.293Z,11.70
2023-02-16T11:51:48.280Z,11.60
2023-02-16T11:52:48.290Z,11.60
2023-02-16T11:53:48.283Z,11.70
2023-02-16T11:54:48.278Z,10.90
2023-02-16T11:55:48.273Z,11.40
2023-02-16T11:56:48.281Z,11.40
2023-02-16T11:57:48.281Z,11.50
2023-02-16T11:58:48.284Z,12.10
2023-02-16T11:59:48.279Z,11.90
2023-02-16T12:00:48.289Z,11.90
2023-02-16T12:01:48.285Z,11.80
2023-02-16T12:02:48.303Z,11.80
2023-02-16T12:03:48.318Z,11.50
2023-02-16T12:04:48.290Z,12.00
2023-02-16T12:05:48.284Z,11.50
2023-02-16T12:06:48.289Z,11.50
2023-02-16T12:07:48.291Z,12.20
2023-02-16T12:08:48.285Z,11.70
2023-02-16T12:09:48.277Z,11.90
2023-02-16T12:10:48.289Z,12.00
2023-02-16T12:11:48.277Z,12.10
2023-02-16T12:12:48.298Z,11.60
2023-02-16T12:13:48.272Z,12.10
2023-02-16T12:14:48.296Z,12.20
2023-02-16T12:15:48.277Z,12.00
2023-02-16T12:16:48.315Z,12.40
2023-02-16T12:17:48.278Z,13.10
2023-02-16T12:18:48.306Z,11.50
2023-02-16T12:19:48.283Z,11.10
2023-02-16T12:20:48.297Z,11.10
2023-02-16T12:21:48.279Z,11.00
2023-02-16T12:22:48.287Z,11.30
2023-02-16T12:23:48.272Z,11.30
2023-02-16T12:24:48.277Z,11.20
2023-02-16T12:25:48.272Z,11.40
2023-02-16T12:26:48.279Z,11.10
2023-02-16T12:27:48.277Z,11.50
2023-02-16T12:28:48.280Z,11.20
2023-02-16T12:29:48.278Z,11.30
2023-02-16T12:30:48.326Z,11.70
2023-02-16T12:31:48.333Z,11.70
2023-02-16T12:32:48.279Z,11.50
2023-02-16T12:33:48.276Z,11.30
2023-02-16T12:34:48.884Z,11.50
2023-02-16T12:35:48.280Z,11.40
2023-02-16T12:36:48.280Z,11.30
2023-02-16T12:37:48.266Z,11.30
2023-02-16T12:38:48.287Z,11.30
2023-02-16T12:39:48.282Z,10.90
2023-02-16T12:40:48.287Z,11.40
2023-02-16T12:41:48.270Z,11.30
2023-02-16T12:42:48.325Z,11.30
2023-02-16T12:43:48.265Z,11.60
2023-02-16T12:44:48.273Z,11.50
2023-02-16T12:45:48.354Z,11.60
2023-02-16T12:46:48.276Z,11.40
2023-02-16T12:47:48.264Z,11.60
2023-02-16T12:48:48.280Z,12.30
2023-02-16T12:49:48.262Z,11.90
2023-02-16T12:50:48.293Z,11.90
2023-02-16T12:51:48.267Z,12.00
2023-02-16T12:52:48.270Z,12.10
2023-02-16T12:53:48.266Z,12.20
2023-02-16T12:54:48.270Z,11.80
2023-02-16T12:55:48.269Z,12.00
2023-02-16T12:56:48.353Z,12.00
2023-02-16T12:57:48.269Z,12.10